Time;durP1;ratioP1;P1;durP2;ratioP2;P2;SDS_P1;SDS_P2;PMS_P1;PMS_P2;Temp;Humidity;BMP_temperature;BMP_pressure;BME280_temperature;BME280_humidity;BME280_pressure;Samples;Min_cycle;Max_cycle;Signal;HPM_P1;HPM_P2
2022/11/11 00:00:34;;;;;;;6.23;2.70;;;11.80;99.90;;;;;;4956546;29;20321;-75
2022/11/11 00:03:00;;;;;;;6.57;3.10;;;11.70;99.90;;;;;;4956206;29;20257;-75
2022/11/11 00:05:27;;;;;;;4.00;3.10;;;11.70;99.90;;;;;;4956336;29;20578;-75
2022/11/11 00:07:58;;;;;;;5.30;3.13;;;11.80;99.90;;;;;;4956199;29;20665;-75
2022/11/11 00:10:27;;;;;;;6.23;2.67;;;11.80;99.90;;;;;;4955680;29;20474;-75
2022/11/11 00:12:53;;;;;;;4.03;2.97;;;11.90;99.90;;;;;;4954915;29;20423;-75
2022/11/11 00:15:19;;;;;;;3.63;2.97;;;12.00;99.90;;;;;;4955532;29;20430;-77
2022/11/11 00:26:06;;;;;;;13.00;4.47;;;12.10;99.90;;;;;;4956322;29;20424;-81
2022/11/11 00:28:31;;;;;;;5.37;3.70;;;11.90;99.90;;;;;;4955169;29;20926;-80
2022/11/11 00:31:02;;;;;;;8.73;3.90;;;11.80;99.90;;;;;;4960402;28;20489;-84
2022/11/11 00:33:27;;;;;;;6.73;3.50;;;11.70;99.90;;;;;;4965162;28;20189;-83
2022/11/11 00:35:53;;;;;;;4.30;3.27;;;11.80;99.90;;;;;;4957354;28;20898;-83
2022/11/11 00:41:19;;;;;;;10.07;4.17;;;11.60;99.90;;;;;;4957375;28;20998;-74
2022/11/11 00:43:45;;;;;;;7.17;3.93;;;11.50;99.90;;;;;;4974395;28;20465;-76
2022/11/11 00:51:41;;;;;;;10.80;5.37;;;11.40;99.90;;;;;;4973677;28;20532;-78
2022/11/11 00:54:07;;;;;;;9.00;3.20;;;11.30;99.90;;;;;;4973515;28;20425;-78
2022/11/11 00:56:35;;;;;;;6.63;3.80;;;11.30;99.90;;;;;;4973179;28;20243;-78
2022/11/11 00:59:02;;;;;;;7.53;3.83;;;11.30;99.90;;;;;;4972609;28;20448;-77
2022/11/11 01:01:28;;;;;;;4.70;3.37;;;11.30;99.90;;;;;;4973047;28;20433;-82
2022/11/11 01:03:53;;;;;;;6.50;3.67;;;11.30;99.90;;;;;;4972540;28;20778;-81
2022/11/11 01:06:19;;;;;;;9.00;4.53;;;11.20;99.90;;;;;;4973582;28;20193;-81
2022/11/11 01:08:44;;;;;;;6.90;4.10;;;11.20;99.90;;;;;;4974444;28;20228;-81
2022/11/11 01:11:15;;;;;;;8.30;3.23;;;11.30;99.90;;;;;;4974403;28;20280;-81
2022/11/11 01:13:41;;;;;;;4.97;3.40;;;11.30;99.90;;;;;;4956970;28;20202;-81
2022/11/11 01:16:11;;;;;;;4.63;3.60;;;11.30;99.90;;;;;;4974378;28;20500;-80
2022/11/11 01:18:37;;;;;;;6.23;3.90;;;11.30;99.90;;;;;;4974523;28;20824;-80
2022/11/11 01:21:11;;;;;;;6.07;3.90;;;11.30;99.90;;;;;;4974170;28;20461;-81
2022/11/11 01:23:38;;;;;;;5.50;4.07;;;11.30;99.90;;;;;;4974307;28;20540;-80
2022/11/11 01:26:15;;;;;;;6.60;4.10;;;11.30;99.90;;;;;;4974151;28;20760;-80
2022/11/11 01:28:41;;;;;;;10.60;3.80;;;11.30;99.90;;;;;;4974078;28;20433;-80
2022/11/11 01:31:10;;;;;;;7.20;3.40;;;11.30;99.90;;;;;;4973783;28;20492;-80
2022/11/11 05:32:09;;;;;;;5.33;2.90;;;11.20;99.90;;;;;;5162052;23;21019;-84
2022/11/11 05:34:35;;;;;;;4.03;3.20;;;11.20;99.90;;;;;;4955835;29;20433;-82
2022/11/11 05:37:01;;;;;;;5.70;2.90;;;11.10;99.90;;;;;;4955747;29;20273;-86
2022/11/11 05:39:26;;;;;;;4.90;2.80;;;11.10;99.90;;;;;;4955391;29;20183;-78
2022/11/11 05:41:52;;;;;;;6.73;2.40;;;11.20;99.90;;;;;;4955562;29;20190;-73
2022/11/11 05:44:17;;;;;;;5.47;3.30;;;11.20;99.90;;;;;;4955663;29;20182;-79
2022/11/11 05:46:43;;;;;;;4.57;2.73;;;11.20;99.90;;;;;;4955475;29;20533;-78
2022/11/11 05:49:14;;;;;;;4.60;2.80;;;11.20;99.90;;;;;;4938167;29;20182;-82
2022/11/11 05:51:40;;;;;;;3.13;2.60;;;11.30;99.90;;;;;;4955662;29;20220;-74
2022/11/11 05:54:05;;;;;;;4.40;3.00;;;11.40;99.90;;;;;;4954919;28;20504;-73
2022/11/11 05:56:31;;;;;;;3.23;2.47;;;11.30;99.90;;;;;;4955216;29;20212;-73
2022/11/11 05:58:56;;;;;;;5.00;3.47;;;11.30;99.90;;;;;;4954759;29;20178;-74
2022/11/11 06:01:22;;;;;;;5.50;2.60;;;11.30;99.90;;;;;;4954343;29;20634;-72
2022/11/11 06:03:48;;;;;;;4.00;2.77;;;11.30;99.90;;;;;;4954277;29;20186;-72
2022/11/11 06:06:13;;;;;;;5.27;2.57;;;11.30;99.90;;;;;;4954090;29;20857;-72
2022/11/11 06:08:39;;;;;;;4.60;2.80;;;11.30;99.90;;;;;;4954232;29;20186;-72
2022/11/11 06:11:05;;;;;;;7.17;3.83;;;11.40;99.90;;;;;;4953998;29;20233;-72
2022/11/11 06:13:30;;;;;;;5.80;3.60;;;11.50;99.90;;;;;;4954083;29;20426;-72
2022/11/11 06:15:57;;;;;;;6.90;3.07;;;11.40;99.90;;;;;;4954111;29;20225;-73
2022/11/11 06:18:23;;;;;;;4.47;2.67;;;11.40;99.90;;;;;;4936888;29;20178;-72
2022/11/11 06:20:53;;;;;;;3.10;2.50;;;11.40;99.90;;;;;;4953974;29;20430;-72
2022/11/11 06:23:18;;;;;;;4.77;2.77;;;11.40;99.90;;;;;;4954011;29;20189;-72
2022/11/11 06:28:28;;;;;;;3.13;2.83;;;11.30;99.90;;;;;;4954110;29;20196;-72
2022/11/11 06:30:53;;;;;;;9.43;3.17;;;11.30;99.90;;;;;;4953516;28;20494;-73
2022/11/11 06:33:20;;;;;;;2.80;2.40;;;11.30;99.90;;;;;;4954001;29;20257;-73
2022/11/11 06:35:46;;;;;;;5.43;3.10;;;11.30;99.90;;;;;;4953761;29;20614;-73
2022/11/11 06:38:11;;;;;;;5.70;2.77;;;11.30;99.90;;;;;;4953931;29;20440;-72
2022/11/11 06:40:37;;;;;;;5.00;3.17;;;11.30;99.90;;;;;;4953900;29;20177;-73
2022/11/11 06:43:02;;;;;;;10.00;3.23;;;11.30;99.90;;;;;;4954073;29;20277;-75
2022/11/11 06:45:30;;;;;;;3.73;3.10;;;11.20;99.90;;;;;;4953439;29;20183;-74
2022/11/11 06:47:56;;;;;;;4.60;2.90;;;11.20;99.90;;;;;;4954325;29;20198;-76
2022/11/11 06:50:21;;;;;;;6.97;3.40;;;11.20;99.90;;;;;;4954202;29;20473;-79
2022/11/11 06:52:47;;;;;;;3.40;2.53;;;11.10;99.90;;;;;;4954472;29;20230;-73
2022/11/11 06:55:13;;;;;;;7.67;2.80;;;11.10;99.90;;;;;;4954813;29;20229;-74
2022/11/11 06:57:39;;;;;;;5.63;3.47;;;11.20;99.90;;;;;;4954612;29;20186;-74
2022/11/11 07:00:05;;;;;;;6.20;3.53;;;11.20;99.90;;;;;;4954535;29;20441;-72
2022/11/11 07:02:31;;;;;;;4.40;3.37;;;11.20;99.90;;;;;;4954189;29;20261;-75
2022/11/11 07:04:56;;;;;;;4.77;3.00;;;11.20;99.90;;;;;;4955198;28;20525;-75
2022/11/11 07:07:22;;;;;;;7.90;3.37;;;11.20;99.90;;;;;;4958411;29;20179;-74
2022/11/11 07:09:48;;;;;;;16.10;3.53;;;11.20;99.90;;;;;;4958267;29;20686;-74
2022/11/11 07:12:13;;;;;;;4.93;3.20;;;11.20;99.90;;;;;;4958420;29;20179;-75
2022/11/11 07:14:39;;;;;;;10.60;3.27;;;11.20;99.90;;;;;;4958335;29;20241;-75
2022/11/11 07:17:04;;;;;;;8.30;4.40;;;11.20;99.90;;;;;;4941083;29;20648;-75
2022/11/11 07:19:30;;;;;;;3.53;3.23;;;11.30;99.90;;;;;;4958184;29;20261;-74
2022/11/11 07:21:56;;;;;;;11.60;3.83;;;11.20;99.90;;;;;;4958132;29;20672;-74
2022/11/11 07:24:21;;;;;;;5.83;3.20;;;11.30;99.90;;;;;;4958329;29;20552;-73
2022/11/11 07:26:47;;;;;;;3.70;2.80;;;11.30;99.90;;;;;;4958122;29;20179;-74
2022/11/11 07:29:14;;;;;;;6.80;3.10;;;11.30;99.90;;;;;;4958040;29;20644;-75
2022/11/11 07:31:40;;;;;;;3.70;2.97;;;11.20;99.90;;;;;;4957699;28;20237;-75
2022/11/11 07:34:06;;;;;;;9.17;3.10;;;11.20;99.90;;;;;;4958034;29;20426;-74
2022/11/11 07:36:31;;;;;;;17.30;4.57;;;11.20;99.90;;;;;;4957610;29;20444;-74
2022/11/11 07:38:57;;;;;;;5.80;3.30;;;11.20;99.90;;;;;;4957806;29;20186;-74
2022/11/11 07:41:22;;;;;;;4.63;2.73;;;11.20;99.90;;;;;;4957848;29;20187;-74
2022/11/11 07:43:48;;;;;;;7.13;2.70;;;11.30;99.90;;;;;;4957621;29;20171;-74
2022/11/11 07:46:14;;;;;;;4.37;2.53;;;11.30;99.90;;;;;;4957783;29;20189;-74
2022/11/11 07:48:39;;;;;;;4.93;2.53;;;11.30;99.90;;;;;;4940369;29;20183;-74
2022/11/11 07:51:05;;;;;;;7.40;2.87;;;11.30;99.90;;;;;;4957644;29;20625;-74
2022/11/11 07:53:31;;;;;;;8.03;2.77;;;11.30;99.90;;;;;;4957561;29;20226;-74
2022/11/11 07:55:56;;;;;;;6.37;3.10;;;11.40;99.90;;;;;;4957487;29;20441;-74
2022/11/11 07:58:22;;;;;;;3.73;2.50;;;11.50;99.90;;;;;;4940399;29;20181;-74
2022/11/11 08:00:47;;;;;;;7.30;2.57;;;11.50;99.90;;;;;;4957406;29;20186;-74
2022/11/11 08:03:13;;;;;;;5.90;2.43;;;11.60;99.90;;;;;;4957444;29;20182;-74
2022/11/11 08:05:38;;;;;;;6.70;2.63;;;11.70;99.90;;;;;;4957383;29;20676;-74
2022/11/11 08:08:06;;;;;;;6.43;3.13;;;11.70;99.90;;;;;;4957272;29;20182;-75
2022/11/11 08:10:32;;;;;;;8.40;2.70;;;11.70;99.90;;;;;;4957134;29;20214;-75
2022/11/11 08:15:42;;;;;;;3.90;2.60;;;11.80;99.90;;;;;;4957083;28;20448;-74
2022/11/11 08:18:08;;;;;;;5.73;1.83;;;11.90;99.90;;;;;;4957216;29;20922;-75
2022/11/11 08:20:34;;;;;;;3.47;2.00;;;11.90;99.90;;;;;;4957143;29;20285;-74
2022/11/11 08:23:02;;;;;;;5.10;1.90;;;11.90;99.90;;;;;;4956831;29;20517;-74
2022/11/11 08:25:29;;;;;;;4.87;2.67;;;12.00;99.90;;;;;;4957047;29;20182;-75
2022/11/11 08:27:58;;;;;;;4.13;2.47;;;12.20;99.90;;;;;;4956946;29;20418;-74
2022/11/11 08:30:24;;;;;;;3.27;2.40;;;12.10;99.90;;;;;;4956645;28;20461;-74
2022/11/11 08:32:59;;;;;;;3.73;2.13;;;12.20;99.90;;;;;;4956856;29;20438;-74
2022/11/11 08:35:26;;;;;;;3.47;2.00;;;12.10;99.90;;;;;;4956801;29;20185;-74
2022/11/11 08:37:52;;;;;;;3.03;2.07;;;12.20;99.90;;;;;;4956783;29;20430;-74
2022/11/11 08:40:18;;;;;;;6.60;2.87;;;12.30;99.90;;;;;;4956579;29;20426;-75
2022/11/11 08:42:44;;;;;;;3.00;2.17;;;12.30;99.90;;;;;;4956143;29;20438;-74
2022/11/11 08:45:09;;;;;;;4.00;2.77;;;12.40;99.90;;;;;;4956646;29;20434;-73
2022/11/11 08:47:36;;;;;;;3.83;2.10;;;12.50;99.90;;;;;;4956587;29;20430;-74
2022/11/11 08:50:02;;;;;;;4.47;1.80;;;12.60;99.90;;;;;;4956407;29;20699;-74
2022/11/11 08:52:28;;;;;;;2.63;2.00;;;12.60;99.90;;;;;;4956295;29;20434;-74
2022/11/11 08:54:53;;;;;;;3.60;1.90;;;12.70;99.90;;;;;;4956472;29;20516;-74
2022/11/11 08:57:19;;;;;;;4.37;2.20;;;12.80;99.90;;;;;;4956475;29;20717;-74
2022/11/11 08:59:45;;;;;;;6.83;1.90;;;12.90;99.90;;;;;;4956376;29;20509;-74
2022/11/11 09:02:11;;;;;;;3.13;2.00;;;12.90;99.90;;;;;;4956378;29;20178;-74
2022/11/11 09:04:38;;;;;;;7.60;1.80;;;13.00;99.90;;;;;;4956310;29;20228;-74
2022/11/11 09:07:05;;;;;;;7.20;2.10;;;13.00;99.90;;;;;;4956280;29;20921;-74
2022/11/11 09:09:30;;;;;;;2.80;2.10;;;13.10;99.90;;;;;;4955866;29;20937;-74
2022/11/11 09:11:56;;;;;;;2.33;2.10;;;13.20;99.90;;;;;;4955650;29;20525;-74
2022/11/11 09:14:21;;;;;;;5.63;1.83;;;13.30;99.90;;;;;;4956215;29;20633;-75
2022/11/11 09:16:47;;;;;;;3.70;1.90;;;13.50;99.90;;;;;;4956092;29;20206;-75
2022/11/11 09:19:12;;;;;;;3.87;1.60;;;13.50;99.90;;;;;;4956066;29;20178;-75
2022/11/11 09:21:38;;;;;;;3.20;1.60;;;13.70;99.90;;;;;;4956029;29;20186;-75
2022/11/11 09:24:04;;;;;;;6.00;1.73;;;13.70;99.90;;;;;;4938761;29;20182;-74
2022/11/11 09:26:30;;;;;;;4.43;2.10;;;13.80;99.90;;;;;;4955994;29;20622;-74
2022/11/11 09:28:55;;;;;;;3.60;1.70;;;13.90;99.90;;;;;;4955131;28;20469;-74
2022/11/11 09:31:22;;;;;;;6.53;1.97;;;14.00;99.90;;;;;;4955562;28;20236;-74
2022/11/11 09:33:49;;;;;;;2.90;2.40;;;14.10;99.90;;;;;;4955787;29;20579;-74
2022/11/11 09:36:14;;;;;;;2.90;1.50;;;14.20;99.90;;;;;;4955709;29;20430;-74
2022/11/11 09:38:40;;;;;;;2.97;2.10;;;14.20;99.90;;;;;;4955688;29;20422;-74
2022/11/11 09:41:40;;;;;;;5.87;2.30;;;14.30;99.90;;;;;;4938510;29;20186;-74
2022/11/11 09:44:25;;;;;;;5.10;2.00;;;14.20;99.90;;;;;;4918688;29;20660;-75
2022/11/11 09:47:07;;;;;;;2.33;1.90;;;14.20;99.90;;;;;;4955570;29;20429;-75
2022/11/11 09:49:48;;;;;;;3.57;2.63;;;14.20;99.90;;;;;;4955501;29;20879;-75
2022/11/11 09:52:18;;;;;;;4.77;1.50;;;14.40;99.90;;;;;;4955497;29;20771;-75
2022/11/11 09:54:58;;;;;;;2.20;1.90;;;14.40;99.90;;;;;;4955403;29;20426;-75
2022/11/11 09:57:36;;;;;;;5.30;1.70;;;14.30;99.90;;;;;;4955338;29;20496;-75
2022/11/11 10:00:13;;;;;;;1.93;1.47;;;14.40;99.90;;;;;;4955378;29;20445;-75
2022/11/11 10:03:04;;;;;;;3.73;2.20;;;14.50;99.90;;;;;;4955255;29;20433;-74
2022/11/11 10:05:47;;;;;;;3.87;1.93;;;14.50;99.90;;;;;;4939767;29;20501;-74
2022/11/11 10:08:21;;;;;;;3.63;2.10;;;14.60;99.90;;;;;;4955522;29;20430;-74
2022/11/11 10:10:48;;;;;;;3.23;1.90;;;14.60;99.90;;;;;;4955184;29;20490;-74
2022/11/11 10:13:18;;;;;;;12.90;2.77;;;14.70;99.90;;;;;;4955263;29;20791;-74
2022/11/11 10:16:14;;;;;;;2.60;1.43;;;14.60;99.90;;;;;;4955200;29;20429;-74
2022/11/11 10:18:46;;;;;;;3.17;2.00;;;14.60;99.90;;;;;;4955160;29;20988;-75
2022/11/11 10:21:15;;;;;;;4.07;2.03;;;14.70;99.90;;;;;;4955078;29;20418;-75
2022/11/11 10:23:45;;;;;;;2.33;1.70;;;14.70;99.90;;;;;;4938179;29;21006;-75
2022/11/11 10:26:38;;;;;;;5.27;2.40;;;14.60;99.90;;;;;;4955189;29;20428;-75
2022/11/11 10:29:12;;;;;;;7.40;2.17;;;14.60;99.90;;;;;;4955021;29;20437;-74
2022/11/11 10:31:39;;;;;;;2.37;1.97;;;14.70;99.90;;;;;;4954699;28;21009;-74
2022/11/11 10:34:10;;;;;;;3.23;1.57;;;14.70;99.90;;;;;;4954869;29;20588;-74
2022/11/11 10:36:53;;;;;;;2.63;1.50;;;14.70;99.90;;;;;;4937735;29;20856;-74
2022/11/11 10:39:30;;;;;;;2.50;2.13;;;14.90;99.90;;;;;;4956625;28;20426;-74
2022/11/11 10:41:56;;;;;;;2.00;1.50;;;14.90;99.90;;;;;;4958762;29;20492;-74
2022/11/11 10:44:24;;;;;;;4.80;1.73;;;14.90;99.90;;;;;;4958920;29;20434;-74
2022/11/11 10:47:09;;;;;;;3.70;2.00;;;15.00;99.90;;;;;;4958835;29;20601;-74
2022/11/11 10:49:41;;;;;;;2.50;1.70;;;15.00;99.90;;;;;;4958597;29;20432;-74
2022/11/11 10:52:18;;;;;;;2.93;1.57;;;15.00;99.90;;;;;;4958879;29;20441;-75
2022/11/11 10:54:54;;;;;;;3.33;1.63;;;15.10;99.90;;;;;;4958555;29;20428;-74
2022/11/11 10:57:36;;;;;;;3.30;2.50;;;15.30;99.90;;;;;;4958622;29;20932;-74
2022/11/11 11:00:07;;;;;;;2.90;1.50;;;15.20;99.90;;;;;;4958590;29;20833;-74
2022/11/11 11:02:35;;;;;;;3.20;2.03;;;15.20;99.90;;;;;;4958341;29;20426;-74
2022/11/11 11:05:09;;;;;;;2.10;1.90;;;15.30;99.90;;;;;;4941195;29;20426;-74
2022/11/11 11:07:45;;;;;;;2.63;1.87;;;15.40;99.90;;;;;;4958374;29;20426;-74
2022/11/11 11:10:29;;;;;;;1.93;1.40;;;15.40;99.90;;;;;;4958358;29;20480;-74
2022/11/11 11:13:05;;;;;;;2.03;1.67;;;15.40;99.90;;;;;;4958343;29;20426;-74
2022/11/11 11:15:37;;;;;;;3.50;1.90;;;15.40;99.90;;;;;;4958333;29;20533;-75
2022/11/11 11:18:14;;;;;;;2.80;1.87;;;15.50;99.90;;;;;;4958250;29;20414;-74
2022/11/11 11:21:03;;;;;;;3.57;1.70;;;15.70;99.90;;;;;;4958166;29;20425;-74
2022/11/11 11:23:41;;;;;;;2.87;1.83;;;15.90;99.90;;;;;;4958149;29;20782;-74
2022/11/11 11:26:08;;;;;;;2.60;1.93;;;15.90;99.90;;;;;;4957988;29;20422;-74
2022/11/11 11:28:34;;;;;;;3.33;1.70;;;15.90;99.90;;;;;;4957141;29;20433;-74
2022/11/11 11:31:07;;;;;;;9.53;1.63;;;16.20;99.90;;;;;;4946679;28;20476;-74
2022/11/11 11:33:51;;;;;;;2.30;1.53;;;16.40;99.90;;;;;;4977322;28;20425;-74
2022/11/11 11:36:18;;;;;;;2.60;1.53;;;16.50;99.90;;;;;;4977232;28;20482;-74
2022/11/11 11:38:49;;;;;;;2.50;1.60;;;16.60;99.90;;;;;;4977149;28;20782;-75
2022/11/11 11:41:15;;;;;;;2.63;1.53;;;16.80;99.90;;;;;;4977245;28;20468;-75
2022/11/11 11:43:44;;;;;;;2.60;1.20;;;17.00;99.90;;;;;;4977126;28;20852;-75
2022/11/11 11:46:29;;;;;;;9.17;2.00;;;17.20;99.90;;;;;;4977169;28;20437;-76
2022/11/11 11:49:34;;;;;;;3.07;2.10;;;17.10;99.90;;;;;;4944386;28;20967;-75
2022/11/11 11:52:17;;;;;;;1.60;1.50;;;17.20;99.90;;;;;;4926747;28;21023;-75
2022/11/11 11:55:04;;;;;;;3.13;1.63;;;17.10;99.90;;;;;;4976850;28;20433;-76
2022/11/11 11:57:45;;;;;;;2.77;1.47;;;17.20;99.90;;;;;;4976832;28;20438;-75
2022/11/11 12:00:19;;;;;;;2.50;1.20;;;17.20;99.90;;;;;;4959525;28;20444;-74
2022/11/11 12:02:44;;;;;;;3.37;1.80;;;17.20;99.90;;;;;;4976771;28;20440;-74
2022/11/11 12:05:23;;;;;;;3.47;2.20;;;17.20;99.90;;;;;;4976842;28;20436;-75
2022/11/11 12:07:54;;;;;;;1.90;1.10;;;17.10;99.90;;;;;;4976605;28;20699;-74
2022/11/11 12:10:57;;;;;;;3.27;1.37;;;17.10;99.90;;;;;;4976508;28;20571;-73
2022/11/11 12:13:47;;;;;;;2.40;1.60;;;17.00;99.90;;;;;;4976637;28;20487;-74
2022/11/11 12:16:26;;;;;;;2.60;1.23;;;17.00;99.90;;;;;;4976647;28;20467;-75
2022/11/11 12:19:07;;;;;;;1.87;1.20;;;16.90;99.90;;;;;;4976444;28;20417;-74
2022/11/11 12:21:50;;;;;;;4.00;1.57;;;16.80;99.90;;;;;;4976460;28;20416;-74
2022/11/11 12:24:33;;;;;;;2.37;1.60;;;16.80;99.90;;;;;;4976402;28;20417;-74
2022/11/11 12:27:12;;;;;;;3.83;1.40;;;16.80;99.90;;;;;;4976385;28;20440;-75
2022/11/11 12:29:56;;;;;;;1.70;1.30;;;16.70;99.90;;;;;;4976083;28;20425;-75
2022/11/11 12:32:52;;;;;;;2.50;1.03;;;16.70;99.90;;;;;;4959039;28;20476;-73
2022/11/11 12:35:28;;;;;;;4.53;1.87;;;16.70;99.90;;;;;;4956898;29;20418;-74
2022/11/11 12:38:12;;;;;;;3.10;1.70;;;16.70;99.90;;;;;;4956846;29;20853;-73
2022/11/11 12:40:54;;;;;;;1.63;1.20;;;16.80;99.90;;;;;;4956786;29;20900;-74
2022/11/11 12:44:01;;;;;;;5.10;1.70;;;16.80;99.90;;;;;;4956387;29;20941;-74
2022/11/11 12:46:44;;;;;;;7.30;1.17;;;16.80;99.90;;;;;;4956655;29;20442;-74
2022/11/11 12:49:16;;;;;;;3.80;1.80;;;16.90;99.20;;;;;;4956748;29;20454;-74
2022/11/11 12:52:14;;;;;;;3.90;1.60;;;16.90;99.30;;;;;;4956318;29;20844;-74
2022/11/11 12:54:46;;;;;;;4.80;1.50;;;16.80;99.20;;;;;;4956451;29;20422;-74
2022/11/11 12:57:14;;;;;;;3.10;1.30;;;16.80;97.90;;;;;;4956511;29;20445;-73
2022/11/11 13:00:03;;;;;;;1.50;1.20;;;16.80;98.40;;;;;;4956270;29;20425;-73
2022/11/11 13:03:05;;;;;;;1.57;1.17;;;16.80;98.80;;;;;;4955342;28;20434;-73
2022/11/11 13:05:54;;;;;;;2.23;1.40;;;16.70;98.50;;;;;;4956239;29;20429;-73
2022/11/11 13:08:39;;;;;;;3.40;1.43;;;16.70;99.40;;;;;;4955421;29;20852;-73
2022/11/11 13:11:15;;;;;;;1.97;0.90;;;16.80;97.50;;;;;;4956124;29;20496;-73
2022/11/11 13:14:05;;;;;;;1.83;0.90;;;16.70;98.10;;;;;;4956153;29;20453;-74
2022/11/11 13:16:30;;;;;;;2.70;1.30;;;16.70;97.30;;;;;;4955715;29;20509;-74
2022/11/11 13:19:22;;;;;;;1.63;1.07;;;16.80;97.60;;;;;;4955294;29;20426;-74
2022/11/11 13:21:56;;;;;;;2.20;1.23;;;16.90;97.40;;;;;;4955970;29;20167;-74
2022/11/11 13:24:23;;;;;;;1.63;1.30;;;17.10;97.50;;;;;;4955927;29;20426;-74
2022/11/11 13:27:05;;;;;;;3.07;1.20;;;17.10;97.20;;;;;;4955925;29;20526;-74
2022/11/11 13:29:58;;;;;;;11.17;2.03;;;17.20;96.80;;;;;;4955424;29;20422;-86
2022/11/11 13:32:31;;;;;;;2.33;1.60;;;17.40;99.90;;;;;;4955438;28;20490;-86
2022/11/11 13:34:57;;;;;;;4.10;2.03;;;17.50;97.10;;;;;;4955275;29;20422;-89
2022/11/11 13:37:32;;;;;;;2.87;1.73;;;17.50;98.60;;;;;;4955102;29;20433;-86
2022/11/11 13:40:08;;;;;;;3.23;1.53;;;17.60;99.90;;;;;;4937946;29;20431;-89
2022/11/11 13:42:40;;;;;;;6.67;1.67;;;17.60;98.80;;;;;;4955589;29;20497;-91
2022/11/11 13:45:33;;;;;;;3.80;1.23;;;17.60;99.90;;;;;;4955307;29;20437;-84
2022/11/11 13:48:00;;;;;;;3.20;1.43;;;17.60;97.90;;;;;;4954611;29;20444;-84
2022/11/11 13:50:30;;;;;;;2.47;1.63;;;17.50;98.10;;;;;;4954712;29;20472;-85
2022/11/11 13:53:04;;;;;;;4.30;1.53;;;17.40;98.20;;;;;;4962686;29;20453;-95
2022/11/11 13:55:46;;;;;;;1.87;1.30;;;17.40;99.90;;;;;;4958426;29;20426;-91
2022/11/11 13:58:30;;;;;;;2.57;1.63;;;17.40;99.90;;;;;;4956235;29;20446;-87
2022/11/11 14:00:59;;;;;;;3.47;1.23;;;17.40;99.90;;;;;;4955316;29;20469;-84
2022/11/11 14:03:24;;;;;;;4.70;1.67;;;17.30;99.90;;;;;;4955717;29;20973;-88
2022/11/11 14:06:12;;;;;;;3.00;1.93;;;17.20;99.90;;;;;;4956168;29;20422;-89
2022/11/11 14:08:49;;;;;;;1.10;0.93;;;17.10;99.60;;;;;;4956372;29;20588;-83
2022/11/11 14:11:23;;;;;;;4.77;1.60;;;17.20;99.50;;;;;;4955301;29;20908;-87
2022/11/11 14:13:50;;;;;;;2.90;1.70;;;17.10;98.40;;;;;;4954738;28;20426;-75
2022/11/11 14:16:34;;;;;;;3.50;1.90;;;17.10;98.40;;;;;;4954308;29;20462;-75
2022/11/11 14:19:26;;;;;;;1.87;1.40;;;16.80;98.00;;;;;;4954208;29;20516;-74
2022/11/11 14:21:54;;;;;;;2.53;1.93;;;16.60;97.80;;;;;;4953929;29;20489;-74
2022/11/11 14:24:30;;;;;;;2.83;1.80;;;16.50;99.40;;;;;;4953994;29;20996;-75
2022/11/11 14:27:09;;;;;;;2.73;1.67;;;16.40;99.40;;;;;;4942191;29;20894;-74
2022/11/11 14:29:52;;;;;;;4.87;1.90;;;16.30;99.50;;;;;;4934794;29;20430;-74
2022/11/11 14:32:43;;;;;;;2.93;1.83;;;16.20;99.90;;;;;;4934901;29;20474;-75
2022/11/11 14:35:15;;;;;;;2.93;1.77;;;16.10;99.90;;;;;;4934479;29;20494;-74
2022/11/11 14:38:02;;;;;;;3.37;1.70;;;16.00;99.90;;;;;;4934151;29;20439;-75
2022/11/11 14:40:32;;;;;;;5.03;1.80;;;15.90;99.90;;;;;;4934645;29;20427;-75
2022/11/11 14:42:59;;;;;;;3.80;1.83;;;15.80;99.90;;;;;;4934729;29;20463;-75
2022/11/11 14:45:28;;;;;;;3.67;2.47;;;15.70;99.90;;;;;;4934758;29;20427;-74
2022/11/11 14:47:55;;;;;;;1.97;1.70;;;15.70;99.90;;;;;;4934666;29;20434;-76
2022/11/11 14:50:29;;;;;;;4.43;2.17;;;15.70;99.90;;;;;;4934688;29;20550;-74
2022/11/11 14:52:57;;;;;;;5.33;1.53;;;15.60;99.90;;;;;;4934677;29;21015;-75
2022/11/11 14:55:38;;;;;;;1.90;1.63;;;15.60;99.90;;;;;;4934712;29;20431;-75
2022/11/11 14:58:07;;;;;;;6.20;2.10;;;15.50;99.90;;;;;;4934710;29;20578;-74
2022/11/11 15:00:44;;;;;;;2.20;1.33;;;15.50;99.90;;;;;;4934528;29;20922;-74
2022/11/11 15:03:27;;;;;;;5.43;1.90;;;15.40;99.90;;;;;;4934455;29;20580;-76
2022/11/11 15:06:26;;;;;;;6.20;1.80;;;15.30;99.90;;;;;;4933674;29;20427;-78
2022/11/11 15:09:19;;;;;;;4.37;1.90;;;15.30;99.90;;;;;;4934577;29;20774;-74
2022/11/11 15:11:55;;;;;;;8.00;2.80;;;15.20;99.90;;;;;;4934414;29;20565;-72
2022/11/11 15:14:42;;;;;;;4.83;2.20;;;15.10;99.90;;;;;;4934459;29;20521;-73
2022/11/11 15:17:17;;;;;;;4.80;2.40;;;15.00;99.90;;;;;;4934433;29;20425;-73
2022/11/11 15:20:08;;;;;;;10.43;2.03;;;15.00;99.90;;;;;;4934527;29;20763;-75
2022/11/11 15:23:11;;;;;;;2.70;1.80;;;15.00;99.90;;;;;;4934412;29;20514;-73
2022/11/11 15:25:45;;;;;;;5.53;2.70;;;14.90;99.90;;;;;;4934853;29;20500;-74
2022/11/11 15:28:26;;;;;;;4.40;2.00;;;14.80;99.90;;;;;;4937956;29;20426;-77
2022/11/11 15:31:13;;;;;;;3.97;2.57;;;14.80;99.90;;;;;;4925606;29;20520;-74
2022/11/11 15:34:08;;;;;;;3.80;2.80;;;14.80;99.90;;;;;;4956891;29;20514;-72
2022/11/11 15:37:00;;;;;;;4.40;2.73;;;14.70;99.90;;;;;;4946657;29;20442;-75
2022/11/11 15:39:43;;;;;;;5.63;2.93;;;14.60;99.90;;;;;;4956985;29;20784;-73
2022/11/11 15:42:13;;;;;;;4.30;2.50;;;14.60;99.90;;;;;;4971293;28;20830;-74
2022/11/11 15:44:38;;;;;;;3.70;2.43;;;14.50;99.90;;;;;;4975985;28;20424;-73
2022/11/11 15:47:05;;;;;;;3.73;2.73;;;14.40;99.90;;;;;;4976757;28;20433;-75
2022/11/11 15:49:43;;;;;;;2.47;2.10;;;14.30;99.90;;;;;;4975529;28;20174;-74
2022/11/11 15:52:32;;;;;;;7.60;2.87;;;14.20;99.90;;;;;;4974986;28;20445;-74
2022/11/11 15:54:59;;;;;;;4.70;2.57;;;14.10;99.90;;;;;;4958869;28;20804;-76
2022/11/11 15:57:30;;;;;;;4.40;2.77;;;14.00;99.90;;;;;;4956682;29;20996;-73
2022/11/11 16:00:01;;;;;;;3.87;3.00;;;13.90;99.90;;;;;;4956216;29;20438;-74
2022/11/11 16:02:30;;;;;;;6.20;3.77;;;13.90;99.90;;;;;;4956306;29;20493;-74
2022/11/11 16:05:00;;;;;;;7.87;3.10;;;13.80;99.90;;;;;;4956164;29;20434;-76
2022/11/11 16:07:36;;;;;;;6.83;4.43;;;13.70;99.90;;;;;;4956303;29;20443;-74
2022/11/11 16:10:23;;;;;;;5.20;3.30;;;13.60;99.90;;;;;;4956246;29;20426;-76
2022/11/11 16:13:04;;;;;;;7.63;4.10;;;13.60;99.90;;;;;;4955940;29;21020;-74
2022/11/11 16:15:39;;;;;;;5.87;4.80;;;13.50;99.90;;;;;;4955735;29;20482;-74
2022/11/11 16:18:18;;;;;;;5.90;3.27;;;13.40;99.90;;;;;;4956171;29;20968;-77
2022/11/11 16:21:08;;;;;;;3.97;3.27;;;13.30;99.90;;;;;;4957491;28;20434;-74
2022/11/11 16:23:36;;;;;;;12.50;3.07;;;13.30;99.90;;;;;;4974810;28;20429;-74
2022/11/11 16:26:03;;;;;;;4.57;3.23;;;13.20;99.90;;;;;;4974095;28;21004;-76
2022/11/11 16:28:37;;;;;;;7.70;3.50;;;13.20;99.90;;;;;;4963228;28;20442;-74
2022/11/11 16:31:30;;;;;;;6.80;3.63;;;13.10;99.90;;;;;;4954532;28;20490;-74
2022/11/11 16:33:56;;;;;;;11.30;4.53;;;13.00;99.90;;;;;;4936346;29;20443;-74
2022/11/11 16:36:21;;;;;;;18.30;9.80;;;12.90;99.90;;;;;;4935772;29;20435;-75
2022/11/11 16:38:47;;;;;;;19.13;11.23;;;12.80;99.90;;;;;;4936335;29;20678;-81
2022/11/11 16:41:28;;;;;;;18.63;10.87;;;12.70;99.90;;;;;;4935853;29;20193;-82
2022/11/11 16:43:56;;;;;;;19.83;10.70;;;12.70;99.90;;;;;;4936476;29;20266;-81
2022/11/11 16:46:39;;;;;;;14.40;9.67;;;12.60;99.90;;;;;;4936058;29;20513;-80
2022/11/11 16:49:28;;;;;;;14.63;7.63;;;12.50;99.90;;;;;;4935465;29;20438;-82
2022/11/11 16:51:56;;;;;;;15.87;14.20;;;12.50;99.90;;;;;;4936228;29;20533;-76
2022/11/11 16:54:25;;;;;;;14.60;11.17;;;12.40;99.90;;;;;;4936308;29;20423;-75
2022/11/11 16:56:55;;;;;;;14.63;6.20;;;12.30;99.90;;;;;;4935783;29;20902;-75
2022/11/11 16:59:41;;;;;;;5.97;5.33;;;12.30;99.90;;;;;;4936188;29;20501;-74
2022/11/11 17:02:16;;;;;;;15.67;10.23;;;12.20;99.90;;;;;;4936340;29;20790;-75
2022/11/11 17:04:47;;;;;;;12.67;7.93;;;12.10;99.90;;;;;;4936077;29;20827;-76
2022/11/11 17:07:34;;;;;;;9.50;6.40;;;12.10;99.90;;;;;;4936224;29;20800;-76
2022/11/11 17:10:20;;;;;;;5.20;4.43;;;12.00;99.90;;;;;;4936080;29;20426;-75
2022/11/11 17:12:50;;;;;;;6.43;4.47;;;11.90;99.90;;;;;;4935796;29;20473;-74
2022/11/11 17:15:18;;;;;;;5.40;3.63;;;11.90;99.90;;;;;;4935928;29;20918;-74
2022/11/11 17:17:44;;;;;;;6.20;3.53;;;11.90;99.90;;;;;;4935831;29;20451;-76
2022/11/11 17:20:18;;;;;;;5.00;3.07;;;11.80;99.90;;;;;;4935842;29;20435;-76
2022/11/11 17:22:55;;;;;;;8.37;3.93;;;11.70;99.90;;;;;;4935708;29;20504;-75
2022/11/11 17:25:21;;;;;;;5.67;3.07;;;11.80;99.90;;;;;;4935696;29;20441;-76
2022/11/11 17:27:47;;;;;;;8.93;3.10;;;11.70;99.90;;;;;;4935478;29;20915;-75
2022/11/11 17:30:13;;;;;;;5.80;3.80;;;11.70;99.90;;;;;;4935530;29;20486;-77
2022/11/11 17:32:39;;;;;;;14.00;3.97;;;11.80;99.90;;;;;;4935345;29;20183;-75
2022/11/11 17:35:05;;;;;;;7.40;4.20;;;11.80;99.90;;;;;;4935669;29;20423;-76